createdAt,value
2022-07-26T00:00:33.206Z,37.79
2022-07-26T00:03:00.275Z,38.52
2022-07-26T00:05:27.067Z,38.51
2022-07-26T00:08:10.893Z,38.07
2022-07-26T00:10:38.812Z,37.68
2022-07-26T00:13:05.583Z,38.21
2022-07-26T00:15:32.575Z,39.13
2022-07-26T00:17:59.664Z,38.30
2022-07-26T00:20:27.524Z,37.48
2022-07-26T00:22:54.531Z,37.53
2022-07-26T00:25:21.542Z,38.24
2022-07-26T00:27:48.609Z,38.64
2022-07-26T00:30:15.496Z,38.72
2022-07-26T00:32:42.575Z,38.48
2022-07-26T00:35:10.793Z,38.72
2022-07-26T00:37:37.731Z,39.00
2022-07-26T00:40:05.358Z,37.87
2022-07-26T00:42:34.645Z,38.99
2022-07-26T00:45:01.521Z,39.21
2022-07-26T00:47:28.549Z,38.95
2022-07-26T00:49:55.638Z,38.79
2022-07-26T00:52:22.444Z,39.18
2022-07-26T00:54:49.563Z,39.21
2022-07-26T00:57:16.434Z,38.68
2022-07-26T00:59:43.270Z,38.55
2022-07-26T01:02:10.509Z,39.65
2022-07-26T01:04:37.505Z,39.77
2022-07-26T01:07:14.636Z,39.59
2022-07-26T01:09:42.618Z,39.90
2022-07-26T01:12:10.061Z,39.67
2022-07-26T01:14:36.843Z,39.14
2022-07-26T01:17:04.115Z,38.96
2022-07-26T01:19:30.918Z,39.38
2022-07-26T01:21:57.764Z,40.05
2022-07-26T01:24:24.868Z,39.48
2022-07-26T01:26:51.732Z,39.44
2022-07-26T01:29:18.476Z,39.42
2022-07-26T01:31:45.546Z,39.74
2022-07-26T01:34:12.755Z,40.09
2022-07-26T01:36:39.718Z,39.69
2022-07-26T01:39:07.026Z,39.41
2022-07-26T01:41:38.067Z,39.65
2022-07-26T01:44:06.508Z,40.33
2022-07-26T01:46:34.259Z,40.98
2022-07-26T01:49:01.846Z,40.15
2022-07-26T01:51:28.819Z,40.31
2022-07-26T01:53:56.277Z,40.73
2022-07-26T01:56:23.190Z,41.11
2022-07-26T01:58:50.291Z,40.45
2022-07-26T02:01:39.464Z,40.63
2022-07-26T02:04:04.948Z,40.28
2022-07-26T02:06:31.896Z,39.98
2022-07-26T02:09:00.489Z,40.08
2022-07-26T02:11:28.186Z,40.12
2022-07-26T02:13:54.891Z,41.37
2022-07-26T02:16:22.036Z,41.40
2022-07-26T02:18:49.208Z,41.51
2022-07-26T02:21:15.921Z,41.47
2022-07-26T02:23:42.663Z,41.54
2022-07-26T02:26:10.023Z,41.15
2022-07-26T02:28:36.841Z,40.17
2022-07-26T02:31:04.305Z,41.35
2022-07-26T02:33:31.398Z,40.89
2022-07-26T02:35:58.169Z,40.62
2022-07-26T02:38:25.071Z,41.42
2022-07-26T02:40:52.849Z,41.61
2022-07-26T02:43:20.059Z,41.87
2022-07-26T02:46:01.037Z,41.78
2022-07-26T02:48:32.863Z,40.97
2022-07-26T02:50:59.746Z,41.87
2022-07-26T02:53:26.502Z,41.66
2022-07-26T02:55:53.549Z,42.50
2022-07-26T02:58:25.111Z,41.90
2022-07-26T03:00:51.906Z,42.76
2022-07-26T03:03:18.906Z,41.70
2022-07-26T03:05:45.745Z,41.49
2022-07-26T03:08:12.922Z,41.83
2022-07-26T03:10:40.627Z,41.72
2022-07-26T03:13:07.461Z,41.69
2022-07-26T03:15:34.200Z,41.60
2022-07-26T03:18:01.415Z,41.14
2022-07-26T03:20:28.609Z,41.02
2022-07-26T03:22:55.334Z,42.02
2022-07-26T03:25:22.373Z,42.40
2022-07-26T03:27:49.085Z,42.23
2022-07-26T03:30:16.518Z,42.52
2022-07-26T03:32:52.382Z,41.65
2022-07-26T03:35:19.134Z,42.31
2022-07-26T03:37:46.748Z,42.41
2022-07-26T03:40:17.450Z,42.67
2022-07-26T03:42:45.337Z,42.53
2022-07-26T03:45:13.216Z,41.74
2022-07-26T03:47:40.000Z,41.75
2022-07-26T03:50:07.425Z,41.86
2022-07-26T03:52:34.607Z,42.45
2022-07-26T03:55:01.462Z,42.66
2022-07-26T03:57:28.542Z,42.75
2022-07-26T03:59:55.945Z,42.52
2022-07-26T04:02:23.352Z,42.96
2022-07-26T04:04:50.433Z,42.10
2022-07-26T04:07:17.143Z,42.40
2022-07-26T04:09:43.932Z,41.35
2022-07-26T04:12:11.320Z,40.77
2022-07-26T04:14:38.655Z,42.13
2022-07-26T04:17:05.556Z,42.97
2022-07-26T04:19:32.629Z,42.79
2022-07-26T04:22:04.734Z,42.30
2022-07-26T04:24:31.613Z,41.92
2022-07-26T04:26:58.630Z,41.94
2022-07-26T04:29:25.355Z,41.19
2022-07-26T04:31:52.177Z,41.35
2022-07-26T04:34:19.245Z,41.17
2022-07-26T04:36:46.195Z,40.31
2022-07-26T04:39:12.958Z,39.33
2022-07-26T04:41:39.966Z,38.02
2022-07-26T04:44:07.621Z,37.37
2022-07-26T04:46:34.658Z,36.67
2022-07-26T04:49:01.790Z,37.46
2022-07-26T04:51:28.545Z,36.59
2022-07-26T04:53:55.312Z,37.40
2022-07-26T04:56:22.370Z,37.41
2022-07-26T04:58:49.122Z,37.61
2022-07-26T05:01:16.065Z,36.58
2022-07-26T05:03:43.101Z,38.25
2022-07-26T05:06:09.869Z,37.57
2022-07-26T05:08:36.668Z,36.36
2022-07-26T05:11:04.283Z,37.81
2022-07-26T05:13:31.197Z,37.86
2022-07-26T05:15:59.234Z,37.18
2022-07-26T05:18:29.893Z,37.09
2022-07-26T05:20:58.505Z,36.66
2022-07-26T05:23:25.473Z,36.30
2022-07-26T05:25:52.804Z,36.44
2022-07-26T05:28:19.600Z,36.00
2022-07-26T05:30:46.449Z,35.84
2022-07-26T05:33:16.747Z,35.32
2022-07-26T05:35:43.750Z,34.97
2022-07-26T05:38:10.612Z,35.04
2022-07-26T05:40:37.644Z,35.23
2022-07-26T05:43:04.978Z,35.17
2022-07-26T05:45:31.889Z,35.06
2022-07-26T05:47:58.934Z,33.65
2022-07-26T05:50:25.743Z,34.08
2022-07-26T05:52:52.863Z,34.76
2022-07-26T05:55:20.024Z,35.91
2022-07-26T05:57:49.991Z,37.10
2022-07-26T06:00:17.064Z,38.15
2022-07-26T06:02:44.389Z,37.55
2022-07-26T06:05:11.293Z,38.19
2022-07-26T06:07:38.221Z,39.29
2022-07-26T06:10:05.570Z,38.04
2022-07-26T06:12:32.373Z,38.26
2022-07-26T06:14:59.188Z,39.38
2022-07-26T06:17:30.245Z,40.55
2022-07-26T06:19:58.013Z,41.13
2022-07-26T06:22:25.107Z,42.02
2022-07-26T06:24:52.242Z,42.82
2022-07-26T06:27:19.216Z,42.89
2022-07-26T06:29:48.537Z,42.70
2022-07-26T06:32:15.802Z,42.91
2022-07-26T06:34:42.729Z,42.67
2022-07-26T06:37:09.641Z,41.84
2022-07-26T06:39:36.753Z,41.44
2022-07-26T06:42:03.586Z,40.55
2022-07-26T06:44:30.356Z,40.49
2022-07-26T06:46:57.505Z,40.76
2022-07-26T06:49:24.678Z,40.67
2022-07-26T06:51:51.661Z,40.33
2022-07-26T06:54:18.776Z,40.26
2022-07-26T06:56:45.717Z,40.48
2022-07-26T06:59:12.762Z,39.57
2022-07-26T07:01:57.477Z,39.73
2022-07-26T07:04:26.898Z,38.79
2022-07-26T07:06:54.034Z,38.84
2022-07-26T07:09:22.070Z,39.29
2022-07-26T07:11:56.198Z,39.39
2022-07-26T07:14:26.546Z,37.85
2022-07-26T07:16:53.717Z,37.38
2022-07-26T07:19:20.938Z,36.70
2022-07-26T07:21:48.061Z,36.57
2022-07-26T07:24:15.183Z,36.12
2022-07-26T07:26:42.226Z,35.26
2022-07-26T07:29:14.635Z,35.08
2022-07-26T07:31:49.013Z,35.21
2022-07-26T07:34:19.777Z,34.91
2022-07-26T07:36:47.434Z,35.03
2022-07-26T07:39:17.222Z,34.38
2022-07-26T07:41:47.812Z,34.81
2022-07-26T07:44:14.646Z,34.54
2022-07-26T07:46:41.814Z,33.04
2022-07-26T07:49:10.843Z,34.08
2022-07-26T07:51:38.361Z,34.25
2022-07-26T07:54:05.856Z,34.91
2022-07-26T07:56:33.607Z,35.18
2022-07-26T07:59:00.615Z,35.88
2022-07-26T08:01:40.580Z,36.62
2022-07-26T08:04:09.039Z,36.18
2022-07-26T08:06:36.198Z,37.41
2022-07-26T08:09:03.903Z,37.40
2022-07-26T08:11:33.731Z,37.15
2022-07-26T08:14:00.899Z,37.69
2022-07-26T08:16:27.694Z,37.21
2022-07-26T08:19:08.713Z,37.19
2022-07-26T08:21:36.088Z,37.69
2022-07-26T08:24:03.151Z,36.54
2022-07-26T08:26:29.899Z,36.81
2022-07-26T08:28:59.658Z,36.31
2022-07-26T08:31:28.152Z,36.00
2022-07-26T08:33:55.098Z,37.78
2022-07-26T08:36:22.038Z,36.58
2022-07-26T08:38:49.106Z,36.69
2022-07-26T08:41:19.623Z,36.21
2022-07-26T08:43:51.669Z,35.30
2022-07-26T08:46:24.758Z,36.27
2022-07-26T08:48:52.476Z,35.92
2022-07-26T08:51:19.682Z,35.67
2022-07-26T08:53:46.417Z,34.50
2022-07-26T08:56:13.178Z,34.14
2022-07-26T08:58:40.976Z,34.59
2022-07-26T09:01:09.162Z,33.68
2022-07-26T09:03:38.862Z,33.72
2022-07-26T09:06:12.998Z,34.21
2022-07-26T09:08:39.797Z,34.40
2022-07-26T09:11:25.016Z,33.97
2022-07-26T09:13:54.718Z,35.04
2022-07-26T09:16:21.947Z,35.79
2022-07-26T09:18:48.861Z,35.68
2022-07-26T09:21:28.908Z,36.20
2022-07-26T09:23:56.658Z,36.01
2022-07-26T09:26:27.286Z,37.05
2022-07-26T09:29:10.330Z,37.37
2022-07-26T09:31:38.337Z,37.95
2022-07-26T09:34:05.761Z,38.92
2022-07-26T09:36:32.699Z,39.18
2022-07-26T09:39:01.155Z,39.44
2022-07-26T09:41:28.238Z,40.21
2022-07-26T09:43:56.525Z,42.12
2022-07-26T09:46:26.175Z,41.35
2022-07-26T09:49:10.969Z,40.73
2022-07-26T09:51:42.638Z,41.26
2022-07-26T09:54:10.434Z,44.62
2022-07-26T09:56:45.452Z,46.42
2022-07-26T09:59:16.313Z,47.92
2022-07-26T10:01:43.744Z,49.05
2022-07-26T10:04:11.585Z,50.24
2022-07-26T10:06:38.778Z,52.18
2022-07-26T10:09:05.991Z,53.52
2022-07-26T10:11:43.134Z,54.14
2022-07-26T10:14:34.101Z,55.71
2022-07-26T10:17:02.293Z,56.11
2022-07-26T10:19:45.392Z,56.20
2022-07-26T10:22:30.684Z,56.58
2022-07-26T10:24:58.686Z,55.43
2022-07-26T10:27:38.197Z,55.76
2022-07-26T10:30:20.364Z,55.45
2022-07-26T10:32:56.710Z,55.47
2022-07-26T10:35:43.968Z,56.85
2022-07-26T10:38:11.889Z,55.87
2022-07-26T10:40:40.092Z,58.01
2022-07-26T10:43:37.871Z,56.66
2022-07-26T10:46:15.287Z,56.73
2022-07-26T10:49:03.959Z,56.67
2022-07-26T10:51:35.288Z,57.37
2022-07-26T10:54:08.815Z,57.49
2022-07-26T10:56:36.279Z,56.98
2022-07-26T10:59:03.994Z,57.16
2022-07-26T11:01:34.003Z,57.19
2022-07-26T11:04:01.071Z,58.03
2022-07-26T11:06:28.529Z,59.07
2022-07-26T11:08:56.090Z,57.14
2022-07-26T11:11:27.888Z,56.59
2022-07-26T11:14:03.517Z,56.02
2022-07-26T11:16:36.140Z,57.40
2022-07-26T11:19:11.995Z,56.81
2022-07-26T11:21:40.577Z,57.71
2022-07-26T11:24:07.653Z,55.09
2022-07-26T11:26:40.503Z,57.10
2022-07-26T11:29:07.620Z,56.90
2022-07-26T11:31:51.440Z,55.52
2022-07-26T11:34:29.140Z,55.78
2022-07-26T11:36:56.725Z,57.71
2022-07-26T11:39:33.455Z,56.01
2022-07-26T11:42:01.919Z,55.40
2022-07-26T11:44:29.219Z,55.05
2022-07-26T11:46:58.010Z,54.86
2022-07-26T11:49:52.759Z,54.80
2022-07-26T11:52:25.210Z,55.49
2022-07-26T11:54:53.020Z,55.04
2022-07-26T11:57:21.114Z,56.24
2022-07-26T11:59:48.615Z,55.39
2022-07-26T12:02:15.656Z,55.75
2022-07-26T12:04:43.657Z,54.76
2022-07-26T12:07:18.364Z,54.69
2022-07-26T12:09:49.825Z,56.34
2022-07-26T12:12:35.399Z,56.74
2022-07-26T12:15:03.682Z,57.34
2022-07-26T12:17:35.042Z,54.91
2022-07-26T12:20:13.118Z,55.79
2022-07-26T12:22:39.895Z,55.12
2022-07-26T12:25:07.666Z,53.38
2022-07-26T12:27:34.460Z,53.79
2022-07-26T12:30:01.238Z,54.08
2022-07-26T12:32:32.132Z,54.73
2022-07-26T12:35:02.991Z,53.86
2022-07-26T12:37:37.832Z,52.95
2022-07-26T12:40:12.035Z,54.20
2022-07-26T12:42:40.282Z,54.50
2022-07-26T12:45:08.697Z,53.75
2022-07-26T12:47:36.289Z,53.79
2022-07-26T12:50:04.285Z,53.12
2022-07-26T12:52:33.788Z,54.14
2022-07-26T12:55:00.715Z,55.73
2022-07-26T12:57:27.815Z,55.16
2022-07-26T12:59:55.223Z,54.69
2022-07-26T13:02:22.232Z,54.52
2022-07-26T13:04:49.435Z,54.53
2022-07-26T13:07:16.653Z,54.18
2022-07-26T13:09:43.699Z,53.77
2022-07-26T13:12:10.916Z,53.38
2022-07-26T13:14:37.933Z,54.57
2022-07-26T13:17:05.605Z,52.08
2022-07-26T13:19:33.210Z,52.17
2022-07-26T13:22:00.285Z,51.34
2022-07-26T13:24:27.941Z,50.43
2022-07-26T13:26:56.551Z,50.28
2022-07-26T13:29:27.359Z,50.03
2022-07-26T13:31:55.716Z,50.37
2022-07-26T13:34:25.981Z,48.04
2022-07-26T13:36:53.015Z,49.41
2022-07-26T13:39:23.237Z,48.15
2022-07-26T13:41:50.368Z,47.81
2022-07-26T13:44:18.179Z,49.24
2022-07-26T13:46:45.074Z,48.31
2022-07-26T13:49:12.767Z,47.04
2022-07-26T13:51:58.058Z,48.78
2022-07-26T13:54:25.161Z,48.11
2022-07-26T13:56:53.286Z,48.21
2022-07-26T13:59:20.772Z,47.91
2022-07-26T14:01:48.096Z,48.19
2022-07-26T14:04:16.190Z,49.15
2022-07-26T14:06:43.409Z,46.97
2022-07-26T14:09:11.233Z,46.61
2022-07-26T14:11:41.880Z,48.03
2022-07-26T14:14:09.073Z,47.28
2022-07-26T14:16:36.912Z,49.20
2022-07-26T14:19:04.004Z,46.83
2022-07-26T14:21:45.474Z,47.56
2022-07-26T14:24:20.913Z,46.05
2022-07-26T14:26:47.852Z,47.87
2022-07-26T14:29:15.031Z,47.64
2022-07-26T14:31:42.087Z,48.02
2022-07-26T14:34:09.180Z,48.20
2022-07-26T14:36:36.238Z,48.01
2022-07-26T14:39:03.488Z,48.51
2022-07-26T14:41:31.688Z,47.55
2022-07-26T14:43:58.503Z,47.21
2022-07-26T14:46:25.562Z,47.59
2022-07-26T14:48:54.865Z,48.07
2022-07-26T14:51:22.311Z,48.86
2022-07-26T14:53:49.375Z,49.54
2022-07-26T14:56:16.091Z,46.95
2022-07-26T14:58:42.846Z,48.01
2022-07-26T15:01:10.677Z,47.70
2022-07-26T15:03:37.497Z,47.96
2022-07-26T15:06:04.366Z,47.57
2022-07-26T15:08:31.413Z,48.43
2022-07-26T15:10:58.198Z,48.19
2022-07-26T15:13:25.004Z,48.04
2022-07-26T15:15:52.177Z,48.13
2022-07-26T15:18:18.959Z,47.00
2022-07-26T15:20:45.678Z,47.80
2022-07-26T15:23:15.608Z,47.71
2022-07-26T15:25:42.446Z,47.94
2022-07-26T15:28:09.182Z,47.47
2022-07-26T15:30:36.465Z,50.06
2022-07-26T15:33:04.223Z,48.11
2022-07-26T15:35:31.732Z,48.09
2022-07-26T15:37:59.055Z,48.09
2022-07-26T15:40:25.904Z,48.04
2022-07-26T15:42:52.920Z,48.76
2022-07-26T15:45:20.532Z,49.36
2022-07-26T15:48:04.606Z,48.54
2022-07-26T15:50:36.097Z,49.45
2022-07-26T15:53:02.876Z,49.29
2022-07-26T15:55:29.728Z,48.19
2022-07-26T15:57:56.754Z,47.67
2022-07-26T16:00:23.487Z,47.09
2022-07-26T16:02:50.657Z,48.26
2022-07-26T16:05:17.614Z,48.14
2022-07-26T16:07:44.574Z,48.17
2022-07-26T16:10:12.628Z,47.90
2022-07-26T16:12:39.844Z,46.57
2022-07-26T16:15:07.319Z,46.89
2022-07-26T16:17:34.409Z,46.59
2022-07-26T16:20:01.330Z,46.20
2022-07-26T16:22:28.172Z,46.66
2022-07-26T16:24:55.370Z,47.27
2022-07-26T16:27:22.372Z,47.07
2022-07-26T16:29:52.141Z,46.23
2022-07-26T16:32:21.298Z,46.96
2022-07-26T16:34:48.308Z,47.20
2022-07-26T16:37:15.398Z,46.69
2022-07-26T16:39:42.599Z,46.65
2022-07-26T16:42:09.478Z,47.69
2022-07-26T16:44:36.389Z,47.18
2022-07-26T16:47:04.090Z,46.78
2022-07-26T16:49:30.950Z,48.35
2022-07-26T16:51:57.825Z,46.59
2022-07-26T16:54:25.035Z,46.93
2022-07-26T16:56:51.948Z,46.86
2022-07-26T16:59:18.949Z,46.08
2022-07-26T17:01:46.122Z,46.26
2022-07-26T17:04:13.055Z,46.78
2022-07-26T17:06:39.796Z,45.77
2022-07-26T17:09:07.219Z,46.60
2022-07-26T17:11:42.101Z,45.33
2022-07-26T17:14:09.601Z,44.12
2022-07-26T17:16:36.811Z,45.11
2022-07-26T17:19:03.611Z,44.22
2022-07-26T17:21:30.648Z,45.19
2022-07-26T17:23:57.455Z,45.19
2022-07-26T17:26:24.514Z,44.71
2022-07-26T17:28:51.516Z,45.18
2022-07-26T17:31:18.370Z,44.25
2022-07-26T17:33:45.147Z,45.31
2022-07-26T17:36:19.079Z,45.42
2022-07-26T17:38:46.375Z,44.77
2022-07-26T17:41:18.436Z,44.56
2022-07-26T17:43:45.704Z,43.63
2022-07-26T17:46:12.526Z,43.73
2022-07-26T17:48:39.930Z,43.62
2022-07-26T17:51:06.903Z,44.24
2022-07-26T17:53:34.145Z,43.44
2022-07-26T17:56:02.282Z,43.66
2022-07-26T17:58:29.038Z,43.17
2022-07-26T18:00:55.845Z,44.61
2022-07-26T18:03:23.317Z,44.59
2022-07-26T18:05:51.372Z,44.92
2022-07-26T18:08:27.119Z,44.43
2022-07-26T18:10:54.944Z,44.86
2022-07-26T18:13:21.994Z,44.12
2022-07-26T18:15:55.468Z,44.30
2022-07-26T18:18:22.438Z,44.49
2022-07-26T18:20:50.227Z,44.16
2022-07-26T18:23:17.241Z,44.22
2022-07-26T18:25:44.193Z,45.19
2022-07-26T18:28:11.184Z,46.51
2022-07-26T18:30:38.271Z,45.13
2022-07-26T18:33:05.571Z,45.21
2022-07-26T18:35:37.976Z,45.78
2022-07-26T18:38:07.001Z,46.03
2022-07-26T18:40:36.506Z,46.36
2022-07-26T18:43:03.256Z,46.33
2022-07-26T18:45:36.843Z,46.49
2022-07-26T18:48:11.300Z,46.49
2022-07-26T18:50:46.913Z,46.34
2022-07-26T18:53:21.104Z,47.06
2022-07-26T18:55:48.762Z,46.85
2022-07-26T18:58:27.436Z,47.66
2022-07-26T19:01:09.906Z,48.04
2022-07-26T19:03:37.013Z,47.37
2022-07-26T19:06:16.144Z,48.18
2022-07-26T19:08:43.262Z,47.62
2022-07-26T19:11:20.375Z,48.06
2022-07-26T19:13:47.302Z,47.64
2022-07-26T19:16:15.323Z,47.77
2022-07-26T19:18:47.096Z,48.35
2022-07-26T19:21:17.363Z,48.39
2022-07-26T19:23:44.161Z,47.72
2022-07-26T19:26:11.820Z,48.12
2022-07-26T19:28:38.826Z,48.17
2022-07-26T19:31:05.882Z,48.22
2022-07-26T19:33:33.639Z,48.95
2022-07-26T19:36:05.190Z,48.62
2022-07-26T19:38:33.217Z,49.07
2022-07-26T19:41:03.025Z,48.36
2022-07-26T19:43:32.580Z,48.92
2022-07-26T19:46:02.075Z,49.09
2022-07-26T19:48:29.719Z,49.34
2022-07-26T19:51:00.308Z,49.60
2022-07-26T19:53:36.411Z,49.51
2022-07-26T19:56:04.414Z,48.89
2022-07-26T19:58:31.503Z,49.62
2022-07-26T20:01:00.365Z,50.11
2022-07-26T20:03:30.667Z,50.09
2022-07-26T20:05:58.315Z,49.90
2022-07-26T20:08:25.352Z,50.13
2022-07-26T20:10:53.199Z,50.61
2022-07-26T20:13:20.088Z,50.57
2022-07-26T20:15:48.950Z,49.75
2022-07-26T20:18:24.858Z,50.18
2022-07-26T20:20:53.589Z,51.46
2022-07-26T20:23:20.701Z,50.88
2022-07-26T20:25:48.197Z,50.37
2022-07-26T20:28:15.622Z,51.17
2022-07-26T20:30:53.408Z,51.00
2022-07-26T20:33:20.976Z,51.53
2022-07-26T20:35:52.926Z,51.62
2022-07-26T20:38:28.448Z,51.41
2022-07-26T20:40:56.646Z,51.46
2022-07-26T20:43:23.547Z,52.39
2022-07-26T20:45:53.683Z,51.30
2022-07-26T20:48:21.065Z,51.48
2022-07-26T20:50:47.947Z,51.92
2022-07-26T20:53:14.757Z,51.93
2022-07-26T20:55:41.790Z,51.52
2022-07-26T20:58:08.546Z,52.73
2022-07-26T21:00:35.876Z,51.84
2022-07-26T21:03:02.940Z,51.75
2022-07-26T21:05:32.464Z,51.78
2022-07-26T21:08:00.087Z,51.46
2022-07-26T21:10:29.070Z,51.34
2022-07-26T21:12:57.499Z,51.92
2022-07-26T21:15:24.384Z,51.33
2022-07-26T21:17:52.518Z,51.98
2022-07-26T21:20:19.487Z,51.96
2022-07-26T21:22:46.206Z,52.34
2022-07-26T21:25:13.249Z,52.04
2022-07-26T21:27:40.032Z,52.21
2022-07-26T21:30:08.755Z,52.17
2022-07-26T21:32:35.727Z,52.45
2022-07-26T21:35:02.626Z,52.42
2022-07-26T21:37:29.572Z,52.57
2022-07-26T21:39:56.596Z,52.58
2022-07-26T21:42:27.725Z,53.03
2022-07-26T21:44:54.868Z,52.44
2022-07-26T21:47:21.899Z,52.84
2022-07-26T21:49:48.634Z,52.89
2022-07-26T21:52:15.973Z,52.95
2022-07-26T21:54:43.081Z,52.96
2022-07-26T21:57:09.887Z,52.56
2022-07-26T21:59:36.660Z,52.35
2022-07-26T22:02:03.893Z,52.57
2022-07-26T22:04:31.716Z,52.57
2022-07-26T22:06:58.631Z,52.55
2022-07-26T22:09:25.460Z,52.42
2022-07-26T22:11:53.404Z,52.49
2022-07-26T22:14:21.469Z,52.46
2022-07-26T22:16:49.271Z,52.81
2022-07-26T22:19:16.474Z,53.12
2022-07-26T22:21:43.232Z,53.08
2022-07-26T22:24:10.115Z,53.17
2022-07-26T22:26:37.241Z,53.38
2022-07-26T22:29:03.972Z,53.26
2022-07-26T22:31:30.802Z,52.76
2022-07-26T22:33:57.829Z,52.78
2022-07-26T22:36:24.913Z,52.88
2022-07-26T22:38:51.775Z,53.05
2022-07-26T22:41:18.955Z,54.45
2022-07-26T22:43:45.652Z,54.82
2022-07-26T22:46:12.520Z,55.22
2022-07-26T22:48:42.191Z,54.68
2022-07-26T22:51:11.193Z,54.66
2022-07-26T22:53:38.016Z,53.92
2022-07-26T22:56:05.206Z,53.66
2022-07-26T22:58:32.588Z,53.75
2022-07-26T23:00:59.497Z,53.37
2022-07-26T23:03:26.596Z,53.27
2022-07-26T23:05:56.916Z,52.98
2022-07-26T23:11:11.059Z,52.87
2022-07-26T23:13:40.123Z,53.02
2022-07-26T23:16:07.174Z,53.20
2022-07-26T23:18:34.946Z,52.89
2022-07-26T23:21:01.757Z,52.79
2022-07-26T23:23:30.479Z,52.31
2022-07-26T23:25:58.254Z,53.21
2022-07-26T23:28:36.713Z,52.40
2022-07-26T23:31:09.031Z,52.31
2022-07-26T23:33:53.158Z,52.66
2022-07-26T23:36:26.931Z,52.55
2022-07-26T23:38:54.338Z,52.29
2022-07-26T23:41:21.448Z,52.71
2022-07-26T23:43:48.195Z,53.11
2022-07-26T23:46:15.161Z,52.49
2022-07-26T23:48:42.318Z,53.45
2022-07-26T23:51:09.257Z,53.57
2022-07-26T23:53:36.400Z,53.05
2022-07-26T23:56:03.528Z,52.74
2022-07-26T23:58:30.303Z,53.57
